sensor_id;sensor_type;location;lat;lon;timestamp;pressure;altitude;pressure_sealevel;temperature;humidity
72892;BME280;61032;50.782;6.818;2023-04-21T00:00:53;100285.94;;;8.89;80.21
72892;BME280;61032;50.782;6.818;2023-04-21T00:01:53;100286.44;;;8.91;80.28
72892;BME280;61032;50.782;6.818;2023-04-21T00:02:54;100281.09;;;8.95;80.26
72892;BME280;61032;50.782;6.818;2023-04-21T00:03:54;100285.59;;;9.00;80.04
72892;BME280;61032;50.782;6.818;2023-04-21T00:04:55;100291.44;;;8.89;79.15
72892;BME280;61032;50.782;6.818;2023-04-21T00:05:55;100291.75;;;8.88;79.41
72892;BME280;61032;50.782;6.818;2023-04-21T00:06:57;100288.84;;;8.84;79.36
72892;BME280;61032;50.782;6.818;2023-04-21T00:08:00;100295.28;;;8.80;79.51
72892;BME280;61032;50.782;6.818;2023-04-21T00:09:00;100284.03;;;8.64;80.16
72892;BME280;61032;50.782;6.818;2023-04-21T00:10:01;100281.13;;;8.69;80.12
72892;BME280;61032;50.782;6.818;2023-04-21T00:11:01;100286.09;;;8.76;80.61
72892;BME280;61032;50.782;6.818;2023-04-21T00:12:01;100277.56;;;8.77;80.65
72892;BME280;61032;50.782;6.818;2023-04-21T00:13:02;100280.50;;;8.72;80.28
72892;BME280;61032;50.782;6.818;2023-04-21T00:14:02;100275.31;;;8.71;80.45
72892;BME280;61032;50.782;6.818;2023-04-21T00:15:03;100279.00;;;8.75;80.90
72892;BME280;61032;50.782;6.818;2023-04-21T00:16:05;100272.88;;;8.86;80.75
72892;BME280;61032;50.782;6.818;2023-04-21T00:17:05;100273.03;;;8.90;80.24
72892;BME280;61032;50.782;6.818;2023-04-21T00:18:06;100275.78;;;8.90;80.30
72892;BME280;61032;50.782;6.818;2023-04-21T00:19:06;100275.78;;;8.90;80.65
72892;BME280;61032;50.782;6.818;2023-04-21T00:20:07;100274.97;;;8.89;80.81
72892;BME280;61032;50.782;6.818;2023-04-21T00:21:09;100276.91;;;8.89;80.51
72892;BME280;61032;50.782;6.818;2023-04-21T00:22:09;100270.78;;;8.83;80.21
72892;BME280;61032;50.782;6.818;2023-04-21T00:23:13;100271.44;;;8.80;81.01
72892;BME280;61032;50.782;6.818;2023-04-21T00:24:14;100268.69;;;8.80;81.34
72892;BME280;61032;50.782;6.818;2023-04-21T00:25:14;100269.81;;;8.79;81.09
72892;BME280;61032;50.782;6.818;2023-04-21T00:26:14;100264.00;;;8.81;81.29
72892;BME280;61032;50.782;6.818;2023-04-21T00:27:15;100260.63;;;8.84;81.58
72892;BME280;61032;50.782;6.818;2023-04-21T00:28:15;100267.09;;;8.88;80.94
72892;BME280;61032;50.782;6.818;2023-04-21T00:29:16;100266.28;;;8.87;80.39
72892;BME280;61032;50.782;6.818;2023-04-21T00:30:16;100276.91;;;8.89;80.16
72892;BME280;61032;50.782;6.818;2023-04-21T00:31:17;100266.59;;;8.86;80.13
72892;BME280;61032;50.782;6.818;2023-04-21T00:32:17;100269.97;;;8.83;80.51
72892;BME280;61032;50.782;6.818;2023-04-21T00:33:17;100264.19;;;8.84;80.20
72892;BME280;61032;50.782;6.818;2023-04-21T00:34:18;100267.41;;;8.86;80.03
72892;BME280;61032;50.782;6.818;2023-04-21T00:35:18;100266.75;;;8.89;80.02
72892;BME280;61032;50.782;6.818;2023-04-21T00:36:18;100266.13;;;8.92;79.79
72892;BME280;61032;50.782;6.818;2023-04-21T00:37:19;100267.72;;;8.93;79.67
72892;BME280;61032;50.782;6.818;2023-04-21T00:38:19;100264.03;;;8.89;79.55
72892;BME280;61032;50.782;6.818;2023-04-21T00:39:19;100265.16;;;8.88;80.03
72892;BME280;61032;50.782;6.818;2023-04-21T00:40:20;100264.81;;;8.90;80.18
72892;BME280;61032;50.782;6.818;2023-04-21T00:41:20;100272.88;;;8.86;80.13
72892;BME280;61032;50.782;6.818;2023-04-21T00:42:20;100265.47;;;8.87;80.60
72892;BME280;61032;50.782;6.818;2023-04-21T00:43:21;100261.59;;;8.88;80.34
72892;BME280;61032;50.782;6.818;2023-04-21T00:44:21;100269.34;;;8.86;80.44
72892;BME280;61032;50.782;6.818;2023-04-21T00:45:21;100261.13;;;8.86;80.00
72892;BME280;61032;50.782;6.818;2023-04-21T00:46:22;100264.81;;;8.81;80.58
72892;BME280;61032;50.782;6.818;2023-04-21T00:47:22;100265.63;;;8.82;80.28
72892;BME280;61032;50.782;6.818;2023-04-21T00:48:22;100262.09;;;8.81;80.63
72892;BME280;61032;50.782;6.818;2023-04-21T00:49:23;100263.06;;;8.85;80.88
72892;BME280;61032;50.782;6.818;2023-04-21T00:50:24;100257.41;;;8.82;80.64
72892;BME280;61032;50.782;6.818;2023-04-21T00:51:27;100258.84;;;8.79;80.73
72892;BME280;61032;50.782;6.818;2023-04-21T00:52:28;100257.72;;;8.80;80.84
72892;BME280;61032;50.782;6.818;2023-04-21T00:53:29;100259.34;;;8.81;80.65
72892;BME280;61032;50.782;6.818;2023-04-21T00:54:29;100261.44;;;8.76;80.80
72892;BME280;61032;50.782;6.818;2023-04-21T00:55:30;100267.25;;;8.74;81.57
72892;BME280;61032;50.782;6.818;2023-04-21T00:56:32;100260.78;;;8.79;82.18
72892;BME280;61032;50.782;6.818;2023-04-21T00:57:35;100260.78;;;8.79;81.96
72892;BME280;61032;50.782;6.818;2023-04-21T00:58:35;100262.56;;;8.75;81.61
72892;BME280;61032;50.782;6.818;2023-04-21T00:59:38;100254.53;;;8.70;81.39
72892;BME280;61032;50.782;6.818;2023-04-21T01:00:38;100265.16;;;8.71;81.73
72892;BME280;61032;50.782;6.818;2023-04-21T01:01:38;100267.88;;;8.80;81.45
72892;BME280;61032;50.782;6.818;2023-04-21T01:02:39;100266.75;;;8.81;81.35
72892;BME280;61032;50.782;6.818;2023-04-21T01:03:40;100260.00;;;8.87;80.94
72892;BME280;61032;50.782;6.818;2023-04-21T01:04:42;100261.91;;;8.86;81.02
72892;BME280;61032;50.782;6.818;2023-04-21T01:05:42;100265.16;;;8.88;80.95
72892;BME280;61032;50.782;6.818;2023-04-21T01:06:43;100261.75;;;8.91;80.74
72892;BME280;61032;50.782;6.818;2023-04-21T01:07:43;100263.50;;;8.96;80.35
72892;BME280;61032;50.782;6.818;2023-04-21T01:08:47;100260.75;;;8.96;80.14
72892;BME280;61032;50.782;6.818;2023-04-21T01:09:47;100264.00;;;8.98;80.77
72892;BME280;61032;50.782;6.818;2023-04-21T01:10:48;100266.88;;;9.02;80.27
72892;BME280;61032;50.782;6.818;2023-04-21T01:12:02;100261.41;;;9.02;79.83
72892;BME280;61032;50.782;6.818;2023-04-21T01:13:02;100258.34;;;8.94;79.76
72892;BME280;61032;50.782;6.818;2023-04-21T01:14:03;100261.09;;;8.94;79.59
72892;BME280;61032;50.782;6.818;2023-04-21T01:15:04;100258.97;;;9.00;79.82
72892;BME280;61032;50.782;6.818;2023-04-21T01:16:06;100255.28;;;9.05;79.50
72892;BME280;61032;50.782;6.818;2023-04-21T01:17:09;100256.09;;;8.96;79.13
72892;BME280;61032;50.782;6.818;2023-04-21T01:18:09;100261.09;;;8.94;79.75
72892;BME280;61032;50.782;6.818;2023-04-21T01:19:10;100262.25;;;8.93;80.25
72892;BME280;61032;50.782;6.818;2023-04-21T01:20:13;100256.09;;;8.96;80.63
72892;BME280;61032;50.782;6.818;2023-04-21T01:21:15;100261.25;;;8.98;80.63
72892;BME280;61032;50.782;6.818;2023-04-21T01:22:15;100251.25;;;9.02;80.38
72892;BME280;61032;50.782;6.818;2023-04-21T01:23:16;100252.22;;;9.06;79.94
72892;BME280;61032;50.782;6.818;2023-04-21T01:24:18;100256.25;;;9.09;79.47
72892;BME280;61032;50.782;6.818;2023-04-21T01:25:18;100253.97;;;9.11;80.45
72892;BME280;61032;50.782;6.818;2023-04-21T01:26:22;100254.63;;;9.08;80.21
72892;BME280;61032;50.782;6.818;2023-04-21T01:27:22;100254.78;;;9.03;79.85
72892;BME280;61032;50.782;6.818;2023-04-21T01:28:24;100259.50;;;8.93;79.76
72892;BME280;61032;50.782;6.818;2023-04-21T01:29:25;100261.91;;;8.95;80.75
72892;BME280;61032;50.782;6.818;2023-04-21T01:30:25;100255.28;;;8.96;80.69
72892;BME280;61032;50.782;6.818;2023-04-21T01:31:26;100258.19;;;9.00;80.74
72892;BME280;61032;50.782;6.818;2023-04-21T01:32:27;100260.91;;;9.00;80.23
72892;BME280;61032;50.782;6.818;2023-04-21T01:33:29;100257.53;;;9.03;79.62
72892;BME280;61032;50.782;6.818;2023-04-21T01:34:30;100255.13;;;9.01;80.17
72892;BME280;61032;50.782;6.818;2023-04-21T01:35:30;100258.19;;;9.00;80.21
72892;BME280;61032;50.782;6.818;2023-04-21T01:36:30;100264.94;;;9.02;80.19
72892;BME280;61032;50.782;6.818;2023-04-21T01:37:32;100255.28;;;9.05;79.76
72892;BME280;61032;50.782;6.818;2023-04-21T01:38:33;100262.38;;;9.06;79.41
72892;BME280;61032;50.782;6.818;2023-04-21T01:39:33;100258.81;;;9.05;79.92
72892;BME280;61032;50.782;6.818;2023-04-21T01:40:34;100256.25;;;9.09;79.94
72892;BME280;61032;50.782;6.818;2023-04-21T01:41:34;100256.72;;;9.11;80.18
72892;BME280;61032;50.782;6.818;2023-04-21T01:42:37;100251.88;;;9.08;79.89
72892;BME280;61032;50.782;6.818;2023-04-21T01:43:38;100254.97;;;8.98;80.61
72892;BME280;61032;50.782;6.818;2023-04-21T01:44:39;100254.66;;;8.90;80.33
72892;BME280;61032;50.782;6.818;2023-04-21T01:45:39;100250.78;;;8.91;80.81
72892;BME280;61032;50.782;6.818;2023-04-21T01:46:39;100262.69;;;8.95;80.62
72892;BME280;61032;50.782;6.818;2023-04-21T01:47:40;100251.41;;;8.97;80.73
72892;BME280;61032;50.782;6.818;2023-04-21T01:48:40;100251.88;;;8.99;80.63
72892;BME280;61032;50.782;6.818;2023-04-21T01:49:40;100247.22;;;9.00;80.52
72892;BME280;61032;50.782;6.818;2023-04-21T01:50:41;100253.66;;;8.95;81.14
72892;BME280;61032;50.782;6.818;2023-04-21T01:51:41;100248.34;;;8.99;80.83
72892;BME280;61032;50.782;6.818;2023-04-21T01:52:41;100248.34;;;9.07;80.38
72892;BME280;61032;50.782;6.818;2023-04-21T01:53:42;100255.75;;;9.07;79.99
72892;BME280;61032;50.782;6.818;2023-04-21T01:54:42;100256.25;;;9.00;80.15
72892;BME280;61032;50.782;6.818;2023-04-21T01:55:42;100245.59;;;8.99;80.52
72892;BME280;61032;50.782;6.818;2023-04-21T01:56:43;100248.81;;;9.01;80.84
72892;BME280;61032;50.782;6.818;2023-04-21T01:57:43;100249.78;;;9.05;80.50
72892;BME280;61032;50.782;6.818;2023-04-21T01:58:43;100243.34;;;9.09;80.69
72892;BME280;61032;50.782;6.818;2023-04-21T01:59:44;100248.97;;;9.04;80.11
72892;BME280;61032;50.782;6.818;2023-04-21T02:00:44;100246.22;;;9.13;79.96
72892;BME280;61032;50.782;6.818;2023-04-21T02:01:44;100234.31;;;9.09;79.70
72892;BME280;61032;50.782;6.818;2023-04-21T02:02:45;100245.75;;;9.02;79.98
72892;BME280;61032;50.782;6.818;2023-04-21T02:03:45;100244.00;;;8.98;80.95
72892;BME280;61032;50.782;6.818;2023-04-21T02:04:46;100237.06;;;9.00;80.51
72892;BME280;61032;50.782;6.818;2023-04-21T02:05:46;100236.56;;;8.98;80.22
72892;BME280;61032;50.782;6.818;2023-04-21T02:06:46;100241.25;;;8.98;80.00
72892;BME280;61032;50.782;6.818;2023-04-21T02:07:46;100239.63;;;8.96;80.07
72892;BME280;61032;50.782;6.818;2023-04-21T02:08:47;100244.78;;;8.98;80.31
72892;BME280;61032;50.782;6.818;2023-04-21T02:09:47;100238.50;;;8.98;79.94
72892;BME280;61032;50.782;6.818;2023-04-21T02:10:47;100234.47;;;8.95;79.54
72892;BME280;61032;50.782;6.818;2023-04-21T02:11:48;100242.25;;;8.93;79.73
72892;BME280;61032;50.782;6.818;2023-04-21T02:12:48;100239.19;;;8.86;79.99
72892;BME280;61032;50.782;6.818;2023-04-21T02:13:48;100240.00;;;8.78;80.03
72892;BME280;61032;50.782;6.818;2023-04-21T02:14:49;100245.47;;;8.78;80.25
72892;BME280;61032;50.782;6.818;2023-04-21T02:15:49;100245.47;;;8.78;80.73
72892;BME280;61032;50.782;6.818;2023-04-21T02:16:50;100243.53;;;8.78;80.73
72892;BME280;61032;50.782;6.818;2023-04-21T02:17:50;100240.81;;;8.78;80.81
72892;BME280;61032;50.782;6.818;2023-04-21T02:18:55;100246.28;;;8.78;80.43
72892;BME280;61032;50.782;6.818;2023-04-21T02:19:56;100245.16;;;8.79;80.88
72892;BME280;61032;50.782;6.818;2023-04-21T02:20:56;100243.06;;;8.76;80.84
72892;BME280;61032;50.782;6.818;2023-04-21T02:21:57;100249.81;;;8.79;80.80
72892;BME280;61032;50.782;6.818;2023-04-21T02:22:57;100250.63;;;8.79;80.30
72892;BME280;61032;50.782;6.818;2023-04-21T02:23:58;100254.19;;;8.80;80.71
72892;BME280;61032;50.782;6.818;2023-04-21T02:24:58;100256.75;;;8.76;80.43
72892;BME280;61032;50.782;6.818;2023-04-21T02:25:58;100254.50;;;8.78;80.92
72892;BME280;61032;50.782;6.818;2023-04-21T02:26:59;100250.31;;;8.81;81.24
72892;BME280;61032;50.782;6.818;2023-04-21T02:28:01;100257.25;;;8.78;81.28
72892;BME280;61032;50.782;6.818;2023-04-21T02:29:01;100253.38;;;8.79;80.80
72892;BME280;61032;50.782;6.818;2023-04-21T02:30:02;100248.06;;;8.83;80.08
72892;BME280;61032;50.782;6.818;2023-04-21T02:31:02;100250.00;;;8.82;80.35
72892;BME280;61032;50.782;6.818;2023-04-21T02:32:03;100258.06;;;8.79;79.89
72892;BME280;61032;50.782;6.818;2023-04-21T02:33:03;100254.81;;;8.77;79.82
72892;BME280;61032;50.782;6.818;2023-04-21T02:34:04;100247.41;;;8.77;80.27
72892;BME280;61032;50.782;6.818;2023-04-21T02:35:04;100248.53;;;8.76;80.18
72892;BME280;61032;50.782;6.818;2023-04-21T02:36:05;100255.63;;;8.77;80.46
72892;BME280;61032;50.782;6.818;2023-04-21T02:37:05;100247.25;;;8.82;80.13
72892;BME280;61032;50.782;6.818;2023-04-21T02:38:06;100258.38;;;8.77;80.68
72892;BME280;61032;50.782;6.818;2023-04-21T02:39:07;100249.03;;;8.78;80.54
72892;BME280;61032;50.782;6.818;2023-04-21T02:40:08;100250.63;;;8.79;80.48
72892;BME280;61032;50.782;6.818;2023-04-21T02:41:09;100253.06;;;8.81;80.07
72892;BME280;61032;50.782;6.818;2023-04-21T02:42:09;100257.56;;;8.77;80.02
72892;BME280;61032;50.782;6.818;2023-04-21T02:43:09;100254.81;;;8.77;79.52
72892;BME280;61032;50.782;6.818;2023-04-21T02:44:11;100252.13;;;8.68;79.23
72892;BME280;61032;50.782;6.818;2023-04-21T02:45:12;100253.41;;;8.71;79.95
72892;BME280;61032;50.782;6.818;2023-04-21T02:46:12;100257.25;;;8.78;80.00
72892;BME280;61032;50.782;6.818;2023-04-21T02:47:14;100255.47;;;8.82;80.27
72892;BME280;61032;50.782;6.818;2023-04-21T02:48:15;100258.38;;;8.86;79.79
72892;BME280;61032;50.782;6.818;2023-04-21T02:49:19;100259.66;;;8.88;79.57
72892;BME280;61032;50.782;6.818;2023-04-21T02:50:20;100254.19;;;8.88;79.70
72892;BME280;61032;50.782;6.818;2023-04-21T02:51:20;100258.22;;;8.82;79.12
72892;BME280;61032;50.782;6.818;2023-04-21T02:52:21;100253.22;;;8.76;78.93
72892;BME280;61032;50.782;6.818;2023-04-21T02:53:21;100254.34;;;8.75;78.94
72892;BME280;61032;50.782;6.818;2023-04-21T02:54:22;100260.31;;;8.77;78.79
72892;BME280;61032;50.782;6.818;2023-04-21T02:55:22;100253.22;;;8.76;79.99
72892;BME280;61032;50.782;6.818;2023-04-21T02:56:23;100252.59;;;8.70;79.88
72892;BME280;61032;50.782;6.818;2023-04-21T02:57:23;100255.47;;;8.74;79.60
72892;BME280;61032;50.782;6.818;2023-04-21T02:58:23;100253.22;;;8.76;79.54
72892;BME280;61032;50.782;6.818;2023-04-21T02:59:23;100256.44;;;8.78;79.68
72892;BME280;61032;50.782;6.818;2023-04-21T03:00:24;100251.59;;;8.75;79.68
72892;BME280;61032;50.782;6.818;2023-04-21T03:01:24;100255.47;;;8.74;79.82
72892;BME280;61032;50.782;6.818;2023-04-21T03:02:25;100253.06;;;8.72;80.27
72892;BME280;61032;50.782;6.818;2023-04-21T03:03:25;100257.41;;;8.73;80.15
72892;BME280;61032;50.782;6.818;2023-04-21T03:04:25;100244.84;;;8.72;80.05
72892;BME280;61032;50.782;6.818;2023-04-21T03:05:26;100245.66;;;8.73;80.26
72892;BME280;61032;50.782;6.818;2023-04-21T03:06:26;100245.19;;;8.71;79.91
72892;BME280;61032;50.782;6.818;2023-04-21T03:07:27;100251.47;;;8.71;80.16
72892;BME280;61032;50.782;6.818;2023-04-21T03:08:28;100253.72;;;8.69;80.08
72892;BME280;61032;50.782;6.818;2023-04-21T03:09:28;100248.25;;;8.69;80.29
72892;BME280;61032;50.782;6.818;2023-04-21T03:10:29;100245.00;;;8.67;80.13
72892;BME280;61032;50.782;6.818;2023-04-21T03:11:29;100249.22;;;8.65;80.27
72892;BME280;61032;50.782;6.818;2023-04-21T03:12:30;100240.66;;;8.66;80.06
72892;BME280;61032;50.782;6.818;2023-04-21T03:13:30;100247.91;;;8.62;79.84
72892;BME280;61032;50.782;6.818;2023-04-21T03:14:30;100244.19;;;8.58;80.45
72892;BME280;61032;50.782;6.818;2023-04-21T03:15:31;100247.44;;;8.51;81.01
72892;BME280;61032;50.782;6.818;2023-04-21T03:16:31;100251.44;;;8.54;80.08
72892;BME280;61032;50.782;6.818;2023-04-21T03:17:31;100249.84;;;8.53;80.17
72892;BME280;61032;50.782;6.818;2023-04-21T03:18:33;100251.00;;;8.52;80.45
72892;BME280;61032;50.782;6.818;2023-04-21T03:19:35;100257.25;;;8.52;80.67
72892;BME280;61032;50.782;6.818;2023-04-21T03:20:35;100251.63;;;8.49;80.88
72892;BME280;61032;50.782;6.818;2023-04-21T03:21:36;100254.69;;;8.47;80.96
72892;BME280;61032;50.782;6.818;2023-04-21T03:22:37;100248.88;;;8.40;80.97
72892;BME280;61032;50.782;6.818;2023-04-21T03:23:38;100247.59;;;8.38;81.15
72892;BME280;61032;50.782;6.818;2023-04-21T03:24:38;100248.72;;;8.37;81.11
72892;BME280;61032;50.782;6.818;2023-04-21T03:25:39;100256.13;;;8.36;81.14
72892;BME280;61032;50.782;6.818;2023-04-21T03:26:39;100248.72;;;8.37;81.17
72892;BME280;61032;50.782;6.818;2023-04-21T03:27:40;100260.00;;;8.35;81.23
72892;BME280;61032;50.782;6.818;2023-04-21T03:28:40;100256.59;;;8.30;81.33
72892;BME280;61032;50.782;6.818;2023-04-21T03:29:40;100253.69;;;8.35;81.21
72892;BME280;61032;50.782;6.818;2023-04-21T03:30:41;100255.94;;;8.33;81.04
72892;BME280;61032;50.782;6.818;2023-04-21T03:31:41;100252.25;;;8.28;81.40
72892;BME280;61032;50.782;6.818;2023-04-21T03:32:41;100254.16;;;8.28;81.76
72892;BME280;61032;50.782;6.818;2023-04-21T03:33:41;100262.72;;;8.26;81.82
72892;BME280;61032;50.782;6.818;2023-04-21T03:34:42;100250.13;;;8.25;81.77
72892;BME280;61032;50.782;6.818;2023-04-21T03:35:42;100257.53;;;8.25;81.48
72892;BME280;61032;50.782;6.818;2023-04-21T03:36:42;100252.72;;;8.22;81.35
72892;BME280;61032;50.782;6.818;2023-04-21T03:37:43;100255.44;;;8.22;81.57
72892;BME280;61032;50.782;6.818;2023-04-21T03:38:43;100254.28;;;8.14;81.58
72892;BME280;61032;50.782;6.818;2023-04-21T03:39:44;100255.91;;;8.15;82.02
72892;BME280;61032;50.782;6.818;2023-04-21T03:40:44;100258.16;;;8.13;81.84
72892;BME280;61032;50.782;6.818;2023-04-21T03:41:44;100248.50;;;8.16;81.64
72892;BME280;61032;50.782;6.818;2023-04-21T03:42:45;100249.13;;;8.13;81.63
72892;BME280;61032;50.782;6.818;2023-04-21T03:43:45;100252.38;;;8.15;81.56
72892;BME280;61032;50.782;6.818;2023-04-21T03:44:45;100248.66;;;8.11;81.74
72892;BME280;61032;50.782;6.818;2023-04-21T03:45:45;100251.25;;;8.07;82.02
72892;BME280;61032;50.782;6.818;2023-04-21T03:46:46;100254.47;;;8.09;81.82
72892;BME280;61032;50.782;6.818;2023-04-21T03:47:46;100255.59;;;8.08;81.61
72892;BME280;61032;50.782;6.818;2023-04-21T03:48:47;100253.97;;;8.07;81.72
72892;BME280;61032;50.782;6.818;2023-04-21T03:49:47;100254.47;;;8.09;81.75
72892;BME280;61032;50.782;6.818;2023-04-21T03:50:47;100258.34;;;8.08;81.80
72892;BME280;61032;50.782;6.818;2023-04-21T03:51:48;100254.63;;;8.04;81.79
72892;BME280;61032;50.782;6.818;2023-04-21T03:52:48;100255.06;;;7.98;81.81
72892;BME280;61032;50.782;6.818;2023-04-21T03:53:48;100257.31;;;7.96;81.91
72892;BME280;61032;50.782;6.818;2023-04-21T03:54:49;100249.75;;;7.92;81.88
72892;BME280;61032;50.782;6.818;2023-04-21T03:55:49;100256.50;;;7.86;82.09
72892;BME280;61032;50.782;6.818;2023-04-21T03:56:50;100255.72;;;7.86;82.39
72892;BME280;61032;50.782;6.818;2023-04-21T03:57:50;100259.56;;;7.85;81.90
72892;BME280;61032;50.782;6.818;2023-04-21T03:58:50;100257.63;;;7.85;81.91
72892;BME280;61032;50.782;6.818;2023-04-21T03:59:51;100259.72;;;7.80;82.02
72892;BME280;61032;50.782;6.818;2023-04-21T04:00:52;100254.38;;;7.75;81.74
72892;BME280;61032;50.782;6.818;2023-04-21T04:01:52;100249.22;;;7.73;81.99
72892;BME280;61032;50.782;6.818;2023-04-21T04:02:52;100250.81;;;7.74;82.08
72892;BME280;61032;50.782;6.818;2023-04-21T04:03:53;100260.97;;;7.74;82.24
72892;BME280;61032;50.782;6.818;2023-04-21T04:04:53;100252.25;;;7.72;81.79
72892;BME280;61032;50.782;6.818;2023-04-21T04:05:53;100263.22;;;7.72;81.97
72892;BME280;61032;50.782;6.818;2023-04-21T04:06:53;100256.63;;;7.73;82.44
72892;BME280;61032;50.782;6.818;2023-04-21T04:07:54;100254.50;;;7.70;82.31
72892;BME280;61032;50.782;6.818;2023-04-21T04:08:54;100251.94;;;7.65;82.21
72892;BME280;61032;50.782;6.818;2023-04-21T04:09:55;100264.00;;;7.64;82.11
72892;BME280;61032;50.782;6.818;2023-04-21T04:10:55;100266.75;;;7.64;82.40
72892;BME280;61032;50.782;6.818;2023-04-21T04:11:55;100272.53;;;7.62;81.84
72892;BME280;61032;50.782;6.818;2023-04-21T04:12:56;100262.53;;;7.57;82.25
72892;BME280;61032;50.782;6.818;2023-04-21T04:13:57;100261.22;;;7.55;82.63
72892;BME280;61032;50.782;6.818;2023-04-21T04:14:57;100267.81;;;7.54;82.90
72892;BME280;61032;50.782;6.818;2023-04-21T04:15:58;100262.66;;;7.52;83.26
72892;BME280;61032;50.782;6.818;2023-04-21T04:16:58;100264.28;;;7.53;82.60
72892;BME280;61032;50.782;6.818;2023-04-21T04:17:58;100272.34;;;7.58;82.29
72892;BME280;61032;50.782;6.818;2023-04-21T04:18:59;100271.22;;;7.59;82.34
72892;BME280;61032;50.782;6.818;2023-04-21T04:19:59;100267.50;;;7.55;82.86
72892;BME280;61032;50.782;6.818;2023-04-21T04:21:05;100268.63;;;7.54;82.65
72892;BME280;61032;50.782;6.818;2023-04-21T04:22:06;100262.84;;;7.56;82.81
72892;BME280;61032;50.782;6.818;2023-04-21T04:23:06;100268.63;;;7.54;82.82
72892;BME280;61032;50.782;6.818;2023-04-21T04:24:07;100271.53;;;7.58;83.09
72892;BME280;61032;50.782;6.818;2023-04-21T04:25:10;100259.78;;;7.57;82.42
72892;BME280;61032;50.782;6.818;2023-04-21T04:26:11;100261.91;;;7.61;82.70
72892;BME280;61032;50.782;6.818;2023-04-21T04:27:12;100262.81;;;7.47;81.73
72892;BME280;61032;50.782;6.818;2023-04-21T04:28:15;100269.25;;;7.51;82.55
72892;BME280;61032;50.782;6.818;2023-04-21T04:29:16;100268.63;;;7.54;82.75
72892;BME280;61032;50.782;6.818;2023-04-21T04:30:16;100264.44;;;7.57;82.70
72892;BME280;61032;50.782;6.818;2023-04-21T04:31:16;100259.59;;;7.54;82.53
72892;BME280;61032;50.782;6.818;2023-04-21T04:32:17;100263.78;;;7.51;82.62
72892;BME280;61032;50.782;6.818;2023-04-21T04:33:17;100262.97;;;7.51;82.73
72892;BME280;61032;50.782;6.818;2023-04-21T04:34:18;100261.03;;;7.51;82.58
72892;BME280;61032;50.782;6.818;2023-04-21T04:35:18;100262.66;;;7.52;82.31
72892;BME280;61032;50.782;6.818;2023-04-21T04:36:19;100260.72;;;7.53;82.78
72892;BME280;61032;50.782;6.818;2023-04-21T04:37:19;100263.97;;;7.55;82.61
72892;BME280;61032;50.782;6.818;2023-04-21T04:38:21;100260.91;;;7.56;82.69
72892;BME280;61032;50.782;6.818;2023-04-21T04:39:22;100252.22;;;7.54;82.22
72892;BME280;61032;50.782;6.818;2023-04-21T04:40:22;100263.47;;;7.53;82.18
72892;BME280;61032;50.782;6.818;2023-04-21T04:41:22;100259.91;;;7.52;82.03
72892;BME280;61032;50.782;6.818;2023-04-21T04:42:23;100261.34;;;7.50;82.79
72892;BME280;61032;50.782;6.818;2023-04-21T04:43:24;100258.63;;;7.50;82.58
72892;BME280;61032;50.782;6.818;2023-04-21T04:44:24;100260.09;;;7.56;82.32
72892;BME280;61032;50.782;6.818;2023-04-21T04:45:25;100253.50;;;7.57;82.55
72892;BME280;61032;50.782;6.818;2023-04-21T04:46:27;100261.22;;;7.55;82.05
72892;BME280;61032;50.782;6.818;2023-04-21T04:47:28;100253.66;;;7.52;81.95
72892;BME280;61032;50.782;6.818;2023-04-21T04:48:28;100253.97;;;7.50;82.72
72892;BME280;61032;50.782;6.818;2023-04-21T04:49:29;100255.56;;;7.51;82.77
72892;BME280;61032;50.782;6.818;2023-04-21T04:50:29;100254.94;;;7.54;82.76
72892;BME280;61032;50.782;6.818;2023-04-21T04:51:29;100256.91;;;7.63;82.93
72892;BME280;61032;50.782;6.818;2023-04-21T04:52:31;100255.31;;;7.62;82.37
72892;BME280;61032;50.782;6.818;2023-04-21T04:53:31;100261.09;;;7.60;82.11
72892;BME280;61032;50.782;6.818;2023-04-21T04:54:32;100263.34;;;7.58;82.06
72892;BME280;61032;50.782;6.818;2023-04-21T04:55:32;100264.28;;;7.53;82.50
72892;BME280;61032;50.782;6.818;2023-04-21T04:56:32;100268.31;;;7.56;82.61
72892;BME280;61032;50.782;6.818;2023-04-21T04:57:33;100263.66;;;7.56;82.05
72892;BME280;61032;50.782;6.818;2023-04-21T04:58:33;100260.28;;;7.59;82.98
72892;BME280;61032;50.782;6.818;2023-04-21T04:59:33;100268.97;;;7.62;81.99
72892;BME280;61032;50.782;6.818;2023-04-21T05:00:35;100268.34;;;7.65;81.82
72892;BME280;61032;50.782;6.818;2023-04-21T05:01:36;100273.81;;;7.65;82.03
72892;BME280;61032;50.782;6.818;2023-04-21T05:02:37;100265.94;;;7.63;81.80
72892;BME280;61032;50.782;6.818;2023-04-21T05:03:38;100266.44;;;7.65;81.60
72892;BME280;61032;50.782;6.818;2023-04-21T05:04:39;100267.72;;;7.68;81.99
72892;BME280;61032;50.782;6.818;2023-04-21T05:05:39;100271.28;;;7.68;81.54
72892;BME280;61032;50.782;6.818;2023-04-21T05:06:39;100272.38;;;7.67;81.51
72892;BME280;61032;50.782;6.818;2023-04-21T05:07:40;100264.50;;;7.66;81.97
72892;BME280;61032;50.782;6.818;2023-04-21T05:08:40;100271.91;;;7.65;81.45
72892;BME280;61032;50.782;6.818;2023-04-21T05:09:40;100266.75;;;7.64;81.61
72892;BME280;61032;50.782;6.818;2023-04-21T05:10:41;100265.31;;;7.66;81.42
72892;BME280;61032;50.782;6.818;2023-04-21T05:11:41;100267.22;;;7.66;81.65
72892;BME280;61032;50.782;6.818;2023-04-21T05:12:41;100266.44;;;7.65;81.43
72892;BME280;61032;50.782;6.818;2023-04-21T05:13:41;100265.31;;;7.66;80.92
72892;BME280;61032;50.782;6.818;2023-04-21T05:14:42;100269.81;;;7.71;81.30
72892;BME280;61032;50.782;6.818;2023-04-21T05:15:42;100259.19;;;7.69;80.95
72892;BME280;61032;50.782;6.818;2023-04-21T05:16:42;100268.84;;;7.67;81.44
72892;BME280;61032;50.782;6.818;2023-04-21T05:17:43;100267.72;;;7.68;81.03
72892;BME280;61032;50.782;6.818;2023-04-21T05:18:43;100264.50;;;7.66;81.10
72892;BME280;61032;50.782;6.818;2023-04-21T05:19:43;100275.44;;;7.66;81.54
72892;BME280;61032;50.782;6.818;2023-04-21T05:20:44;100275.44;;;7.66;81.03
72892;BME280;61032;50.782;6.818;2023-04-21T05:21:44;100261.44;;;7.67;81.05